createdAt,value
2023-01-18T00:00:46.554Z,99207.66
2023-01-18T00:03:13.929Z,99211.63
2023-01-18T00:05:41.445Z,99215.50
2023-01-18T00:08:09.444Z,99213.84
2023-01-18T00:10:36.051Z,99203.59
2023-01-18T00:13:03.328Z,99221.09
2023-01-18T00:15:31.473Z,99198.91
2023-01-18T00:17:57.867Z,99162.19
2023-01-18T00:20:26.511Z,99220.53
2023-01-18T00:22:53.550Z,99210.19
2023-01-18T00:25:21.756Z,99168.63
2023-01-18T00:27:50.304Z,99227.94
2023-01-18T00:30:18.543Z,99226.56
2023-01-18T00:32:45.199Z,99225.63
2023-01-18T00:35:11.980Z,99172.56
2023-01-18T00:37:38.941Z,99217.03
2023-01-18T00:40:06.767Z,99209.53
2023-01-18T00:42:51.599Z,99202.91
2023-01-18T00:45:18.076Z,99195.56
2023-01-18T00:47:44.592Z,99193.88
2023-01-18T00:50:11.677Z,99231.47
2023-01-18T00:52:38.389Z,99230.19
2023-01-18T00:55:05.796Z,99229.66
2023-01-18T00:57:32.194Z,99225.34
2023-01-18T01:00:33.396Z,99229.25
2023-01-18T01:03:00.272Z,99227.00
2023-01-18T01:05:47.259Z,99220.91
2023-01-18T01:08:19.776Z,99228.25
2023-01-18T01:10:48.322Z,99234.91
2023-01-18T01:13:35.986Z,99235.19
2023-01-18T01:16:25.946Z,99227.69
2023-01-18T01:19:11.032Z,99232.78
2023-01-18T01:21:56.819Z,99222.81
2023-01-18T01:24:42.196Z,99234.72
2023-01-18T01:27:08.560Z,99234.19
2023-01-18T01:29:34.919Z,99213.81
2023-01-18T01:32:01.684Z,99247.75
2023-01-18T01:34:29.622Z,99204.53
2023-01-18T01:36:56.619Z,99224.50
2023-01-18T01:39:23.153Z,99241.53
2023-01-18T01:41:49.934Z,99236.25
2023-01-18T01:44:27.953Z,99256.09
2023-01-18T01:47:00.201Z,99252.78
2023-01-18T01:49:33.408Z,99231.44
2023-01-18T01:52:11.956Z,99256.34
2023-01-18T01:54:47.665Z,99256.22
2023-01-18T01:57:27.114Z,99249.00
2023-01-18T01:59:59.592Z,99248.44
2023-01-18T02:02:26.381Z,99238.31
2023-01-18T02:04:55.160Z,99245.66
2023-01-18T02:07:23.162Z,99243.16
2023-01-18T02:09:51.439Z,99244.81
2023-01-18T02:12:18.743Z,99233.34
2023-01-18T02:14:45.251Z,99253.56
2023-01-18T02:17:31.567Z,99210.47
2023-01-18T02:20:37.819Z,99253.56
2023-01-18T02:23:34.910Z,99253.56
2023-01-18T02:26:28.954Z,99261.22
2023-01-18T02:29:13.595Z,99264.59
2023-01-18T02:31:50.607Z,99260.84
2023-01-18T02:34:42.928Z,99267.06
2023-01-18T02:37:30.616Z,99264.03
2023-01-18T02:40:15.514Z,99268.19
2023-01-18T02:43:03.594Z,99268.34
2023-01-18T02:45:55.662Z,99269.16
2023-01-18T02:48:24.440Z,99269.56
2023-01-18T02:50:51.652Z,99275.53
2023-01-18T02:53:18.025Z,99257.94
2023-01-18T02:56:00.304Z,99274.41
2023-01-18T02:58:55.659Z,99273.56
2023-01-18T03:01:28.488Z,99282.31
2023-01-18T03:03:59.804Z,99251.81
2023-01-18T03:06:29.455Z,99278.72
2023-01-18T03:08:58.510Z,99282.59
2023-01-18T03:11:35.713Z,99284.00
2023-01-18T03:14:39.901Z,99285.13
2023-01-18T03:17:28.764Z,99293.16
2023-01-18T03:20:09.550Z,99264.44
2023-01-18T03:22:56.780Z,99269.88
2023-01-18T03:25:33.573Z,99283.88
2023-01-18T03:28:23.807Z,99278.44
2023-01-18T03:31:11.067Z,99275.28
2023-01-18T03:33:48.829Z,99285.25
2023-01-18T03:36:31.927Z,99288.28
2023-01-18T03:39:03.998Z,99275.28
2023-01-18T03:41:35.740Z,99283.59
2023-01-18T03:44:07.385Z,99291.34
2023-01-18T03:46:34.411Z,99288.03
2023-01-18T03:49:01.166Z,99274.16
2023-01-18T03:51:47.180Z,99293.03
2023-01-18T03:54:40.444Z,99283.59
2023-01-18T03:57:23.417Z,99293.84
2023-01-18T03:59:50.346Z,99286.22
2023-01-18T04:02:18.123Z,99294.69
2023-01-18T04:04:44.683Z,99299.41
2023-01-18T04:07:11.122Z,99301.50
2023-01-18T04:09:37.503Z,99303.56
2023-01-18T04:12:04.099Z,99297.34
2023-01-18T04:14:30.892Z,99297.75
2023-01-18T04:16:57.278Z,99285.69
2023-01-18T04:19:23.688Z,99283.59
2023-01-18T04:21:50.091Z,99269.31
2023-01-18T04:24:17.234Z,99279.59
2023-01-18T04:26:43.640Z,99315.06
2023-01-18T04:29:10.532Z,99311.31
2023-01-18T04:31:36.919Z,99311.63
2023-01-18T04:34:03.479Z,99318.53
2023-01-18T04:36:29.865Z,99318.81
2023-01-18T04:38:56.306Z,99318.13
2023-01-18T04:41:23.222Z,99312.28
2023-01-18T04:43:49.585Z,99310.50
2023-01-18T04:46:16.321Z,99306.19
2023-01-18T04:48:42.837Z,99322.97
2023-01-18T04:51:13.860Z,99330.34
2023-01-18T04:53:42.148Z,99330.88
2023-01-18T04:56:08.904Z,99305.78
2023-01-18T04:58:35.279Z,99325.19
2023-01-18T05:01:03.674Z,99332.97
2023-01-18T05:03:30.495Z,99326.72
2023-01-18T05:05:57.039Z,99329.94
2023-01-18T05:08:23.416Z,99338.66
2023-01-18T05:10:50.487Z,99334.06
2023-01-18T05:13:16.872Z,99318.25
2023-01-18T05:15:43.223Z,99335.03
2023-01-18T05:18:09.621Z,99313.25
2023-01-18T05:20:35.986Z,99333.78
2023-01-18T05:23:10.547Z,99326.59
2023-01-18T05:25:37.242Z,99297.47
2023-01-18T05:28:03.705Z,99340.16
2023-01-18T05:30:32.712Z,99351.00
2023-01-18T05:33:01.914Z,99349.19
2023-01-18T05:35:28.634Z,99340.47
2023-01-18T05:37:55.042Z,99347.66
2023-01-18T05:40:21.417Z,99355.31
2023-01-18T05:42:47.822Z,99356.94
2023-01-18T05:45:14.420Z,99319.25
2023-01-18T05:47:41.196Z,99339.88
2023-01-18T05:50:08.940Z,99370.03
2023-01-18T05:52:35.995Z,99358.50
2023-01-18T05:55:02.418Z,99375.84
2023-01-18T05:57:28.782Z,99371.25
2023-01-18T05:59:55.153Z,99378.47
2023-01-18T06:02:21.506Z,99343.78
2023-01-18T06:04:47.887Z,99374.03
2023-01-18T06:07:15.031Z,99395.81
2023-01-18T06:09:42.890Z,99399.53
2023-01-18T06:12:10.108Z,99396.38
2023-01-18T06:14:36.480Z,99386.38
2023-01-18T06:17:02.899Z,99399.84
2023-01-18T06:19:30.424Z,99395.66
2023-01-18T06:21:56.784Z,99411.03
2023-01-18T06:24:23.196Z,99412.13
2023-01-18T06:26:49.560Z,99412.44
2023-01-18T06:29:15.921Z,99415.34
2023-01-18T06:31:42.274Z,99412.31
2023-01-18T06:34:09.427Z,99405.66
2023-01-18T06:36:37.569Z,99404.81
2023-01-18T06:39:04.445Z,99356.94
2023-01-18T06:41:31.042Z,99406.47
2023-01-18T06:43:57.660Z,99424.81
2023-01-18T06:46:24.052Z,99394.94
2023-01-18T06:48:50.446Z,99418.41
2023-01-18T06:51:16.879Z,99434.34
2023-01-18T06:53:43.223Z,99431.41
2023-01-18T06:56:13.990Z,99444.47
2023-01-18T06:58:40.752Z,99418.25
2023-01-18T07:01:07.491Z,99415.91
2023-01-18T07:03:34.560Z,99451.84
2023-01-18T07:06:03.134Z,99414.22
2023-01-18T07:08:31.016Z,99451.59
2023-01-18T07:10:58.255Z,99454.47
2023-01-18T07:13:25.551Z,99467.81
2023-01-18T07:16:01.072Z,99468.06
2023-01-18T07:18:29.458Z,99471.06
2023-01-18T07:21:10.065Z,99461.66
2023-01-18T07:23:39.258Z,99469.72
2023-01-18T07:26:11.454Z,99479.97
2023-01-18T07:28:38.483Z,99453.00
2023-01-18T07:31:06.294Z,99443.66
2023-01-18T07:33:32.722Z,99474.75
2023-01-18T07:35:59.125Z,99490.31
2023-01-18T07:38:26.038Z,99489.31
2023-01-18T07:41:02.252Z,99484.31
2023-01-18T07:43:30.479Z,99479.16
2023-01-18T07:45:58.170Z,99497.69
2023-01-18T07:48:28.582Z,99474.75
2023-01-18T07:51:03.052Z,99510.47
2023-01-18T07:53:31.042Z,99508.25
2023-01-18T07:56:05.580Z,99492.41
2023-01-18T07:58:33.589Z,99465.28
2023-01-18T08:01:26.574Z,99520.59
2023-01-18T08:03:54.609Z,99489.59
2023-01-18T08:06:26.587Z,99532.25
2023-01-18T08:08:55.822Z,99497.56
2023-01-18T08:11:22.614Z,99494.22
2023-01-18T08:13:50.446Z,99527.59
2023-01-18T08:16:17.708Z,99532.47
2023-01-18T08:18:45.746Z,99535.22
2023-01-18T08:21:13.419Z,99521.59
2023-01-18T08:23:40.397Z,99544.97
2023-01-18T08:26:07.946Z,99544.69
2023-01-18T08:28:34.719Z,99548.28
2023-01-18T08:31:11.623Z,99555.34
2023-01-18T08:33:45.436Z,99553.84
2023-01-18T08:36:14.937Z,99557.47
2023-01-18T08:38:41.438Z,99554.69
2023-01-18T08:41:08.347Z,99559.19
2023-01-18T08:43:35.175Z,99562.78
2023-01-18T08:46:01.671Z,99548.03
2023-01-18T08:48:28.152Z,99566.81
2023-01-18T08:50:54.516Z,99540.53
2023-01-18T08:53:20.929Z,99554.16
2023-01-18T08:55:47.289Z,99576.41
2023-01-18T08:58:13.786Z,99581.28
2023-01-18T09:00:40.160Z,99570.47
2023-01-18T09:03:06.915Z,99580.34
2023-01-18T09:05:35.566Z,99585.78
2023-01-18T09:08:02.587Z,99596.63
2023-01-18T09:10:30.311Z,99596.75
2023-01-18T09:12:57.177Z,99598.03
2023-01-18T09:15:23.773Z,99581.91
2023-01-18T09:17:50.200Z,99587.31
2023-01-18T09:20:18.879Z,99604.28
2023-01-18T09:22:47.658Z,99601.91
2023-01-18T09:25:14.363Z,99594.53
2023-01-18T09:27:40.810Z,99600.63
2023-01-18T09:30:09.362Z,99601.91
2023-01-18T09:32:35.795Z,99610.19
2023-01-18T09:35:02.188Z,99601.22
2023-01-18T09:37:28.600Z,99597.78
2023-01-18T09:39:54.984Z,99593.84
2023-01-18T09:42:23.915Z,99589.50
2023-01-18T09:44:53.799Z,99580.44
2023-01-18T09:47:26.995Z,99581.44
2023-01-18T09:50:02.718Z,99571.94
2023-01-18T09:52:57.544Z,99584.78
2023-01-18T09:55:28.737Z,99579.78
2023-01-18T09:58:00.477Z,99571.84
2023-01-18T10:00:33.454Z,99554.63
2023-01-18T10:03:04.827Z,99572.84
2023-01-18T10:05:36.630Z,99561.72
2023-01-18T10:08:18.242Z,99567.44
2023-01-18T10:11:01.559Z,99553.63
2023-01-18T10:13:47.456Z,99556.59
2023-01-18T10:16:15.126Z,99532.31
2023-01-18T10:18:48.185Z,99549.09
2023-01-18T10:21:34.114Z,99550.44
2023-01-18T10:24:38.132Z,99556.59
2023-01-18T10:27:10.757Z,99555.75
2023-01-18T10:30:02.340Z,99544.03
2023-01-18T10:32:30.378Z,99544.53
2023-01-18T10:34:58.740Z,99530.09
2023-01-18T10:37:45.202Z,99553.09
2023-01-18T10:40:13.769Z,99543.22
2023-01-18T10:42:44.927Z,99542.94
2023-01-18T10:45:17.443Z,99516.34
2023-01-18T10:47:44.775Z,99557.78
2023-01-18T10:50:18.857Z,99560.25
2023-01-18T10:52:46.056Z,99567.81
2023-01-18T10:55:17.937Z,99564.63
2023-01-18T10:57:47.974Z,99564.44
2023-01-18T11:00:23.562Z,99544.34
2023-01-18T11:02:51.931Z,99547.28
2023-01-18T11:05:24.390Z,99562.28
2023-01-18T11:08:10.616Z,99551.91
2023-01-18T11:10:41.508Z,99550.22
2023-01-18T11:13:45.232Z,99554.84
2023-01-18T11:16:17.607Z,99546.22
2023-01-18T11:19:16.673Z,99549.50
2023-01-18T11:21:51.757Z,99540.75
2023-01-18T11:24:27.926Z,99554.81
2023-01-18T11:27:01.631Z,99537.00
2023-01-18T11:29:39.473Z,99532.47
2023-01-18T11:32:13.187Z,99525.19
2023-01-18T11:34:43.718Z,99537.06
2023-01-18T11:37:31.703Z,99530.47
2023-01-18T11:39:58.144Z,99527.72
2023-01-18T11:42:31.513Z,99526.50
2023-01-18T11:45:12.376Z,99527.38
2023-01-18T11:48:16.112Z,99530.47
2023-01-18T11:50:56.898Z,99524.66
2023-01-18T11:53:48.259Z,99532.75
2023-01-18T11:56:40.750Z,99530.75
2023-01-18T11:59:30.396Z,99544.75
2023-01-18T12:02:15.599Z,99530.81
2023-01-18T12:04:56.119Z,99548.03
2023-01-18T12:07:31.602Z,99537.47
2023-01-18T12:10:01.581Z,99506.09
2023-01-18T12:12:40.794Z,99497.34
2023-01-18T12:15:31.294Z,99524.22
2023-01-18T12:18:19.637Z,99530.56
2023-01-18T12:21:14.355Z,99542.84
2023-01-18T12:24:16.270Z,99552.44
2023-01-18T12:26:57.993Z,99551.97
2023-01-18T12:29:42.744Z,99558.34
2023-01-18T12:32:39.867Z,99555.31
2023-01-18T12:35:27.193Z,99583.25
2023-01-18T12:38:15.306Z,99585.41
2023-01-18T12:40:58.005Z,99582.88
2023-01-18T12:43:34.887Z,99575.03
2023-01-18T12:46:07.306Z,99576.88
2023-01-18T12:48:47.134Z,99564.44
2023-01-18T12:51:17.617Z,99552.31
2023-01-18T12:54:03.572Z,99565.22
2023-01-18T12:56:39.084Z,99525.81
2023-01-18T12:59:11.741Z,99576.56
2023-01-18T13:01:42.686Z,99560.09
2023-01-18T13:04:17.901Z,99568.94
2023-01-18T13:06:45.009Z,99580.88
2023-01-18T13:09:25.788Z,99573.31
2023-01-18T13:11:52.417Z,99587.22
2023-01-18T13:14:33.421Z,99546.88
2023-01-18T13:17:14.109Z,99578.56
2023-01-18T13:19:57.556Z,99550.06
2023-01-18T13:22:43.931Z,99546.97
2023-01-18T13:25:19.576Z,99579.91
2023-01-18T13:28:01.217Z,99559.28
2023-01-18T13:30:30.663Z,99569.25
2023-01-18T13:32:57.416Z,99566.41
2023-01-18T13:35:32.740Z,99565.91
2023-01-18T13:38:13.103Z,99564.03
2023-01-18T13:40:52.511Z,99571.63
2023-01-18T13:43:35.722Z,99572.44
2023-01-18T13:46:08.258Z,99572.50
2023-01-18T13:48:55.117Z,99575.19
2023-01-18T13:51:36.588Z,99578.69
2023-01-18T13:54:03.979Z,99569.25
2023-01-18T13:56:33.109Z,99566.78
2023-01-18T13:59:01.676Z,99553.69
2023-01-18T14:01:33.579Z,99574.59
2023-01-18T14:04:28.209Z,99567.31
2023-01-18T14:06:57.278Z,99568.63
2023-01-18T14:09:37.303Z,99533.38
2023-01-18T14:12:04.826Z,99562.78
2023-01-18T14:14:34.483Z,99555.59
2023-01-18T14:17:23.190Z,99576.06
2023-01-18T14:19:57.380Z,99584.38
2023-01-18T14:23:05.616Z,99581.69
2023-01-18T14:25:54.516Z,99586.00
2023-01-18T14:28:29.710Z,99535.09
2023-01-18T14:30:59.621Z,99574.34
2023-01-18T14:33:38.127Z,99579.66
2023-01-18T14:36:06.545Z,99547.09
2023-01-18T14:38:32.996Z,99569.16
2023-01-18T14:41:05.080Z,99591.78
2023-01-18T14:43:35.072Z,99583.16
2023-01-18T14:46:09.862Z,99575.66
2023-01-18T14:48:47.155Z,99594.28
2023-01-18T14:51:18.709Z,99581.59
2023-01-18T14:54:06.952Z,99575.31
2023-01-18T14:56:40.950Z,99591.56
2023-01-18T14:59:27.401Z,99582.28
2023-01-18T15:02:02.887Z,99582.97
2023-01-18T15:04:38.778Z,99563.97
2023-01-18T15:07:10.051Z,99586.41
2023-01-18T15:09:39.482Z,99575.94
2023-01-18T15:12:10.198Z,99545.81
2023-01-18T15:14:43.350Z,99574.81
2023-01-18T15:17:21.273Z,99566.84
2023-01-18T15:19:59.701Z,99560.34
2023-01-18T15:22:34.435Z,99572.50
2023-01-18T15:25:01.463Z,99596.78
2023-01-18T15:27:32.184Z,99606.56
2023-01-18T15:30:00.535Z,99610.69
2023-01-18T15:32:31.140Z,99608.50
2023-01-18T15:34:58.810Z,99600.53
2023-01-18T15:37:28.428Z,99592.06
2023-01-18T15:39:58.119Z,99597.34
2023-01-18T15:42:33.255Z,99582.84
2023-01-18T15:45:00.342Z,99599.97
2023-01-18T15:47:36.556Z,99579.81
2023-01-18T15:50:06.334Z,99598.13
2023-01-18T15:52:39.021Z,99602.72
2023-01-18T15:55:08.369Z,99581.97
2023-01-18T15:57:36.400Z,99599.50
2023-01-18T16:00:05.831Z,99605.88
2023-01-18T16:02:32.429Z,99593.88
2023-01-18T16:05:28.372Z,99605.31
2023-01-18T16:08:30.223Z,99591.19
2023-01-18T16:10:56.962Z,99608.16
2023-01-18T16:13:26.128Z,99612.50
2023-01-18T16:16:22.404Z,99611.16
2023-01-18T16:19:02.680Z,99602.66
2023-01-18T16:21:49.929Z,99612.50
2023-01-18T16:24:38.822Z,99608.88
2023-01-18T16:27:18.976Z,99601.28
2023-01-18T16:29:49.568Z,99584.44
2023-01-18T16:32:25.061Z,99608.72
2023-01-18T16:34:53.219Z,99605.09
2023-01-18T16:37:19.968Z,99608.53
2023-01-18T16:39:46.647Z,99559.47
2023-01-18T16:42:13.587Z,99591.91
2023-01-18T16:44:43.193Z,99626.88
2023-01-18T16:47:15.602Z,99627.31
2023-01-18T16:49:44.046Z,99595.56
2023-01-18T16:52:13.185Z,99606.91
2023-01-18T16:54:41.870Z,99589.94
2023-01-18T16:57:17.700Z,99619.38
2023-01-18T16:59:44.082Z,99621.94
2023-01-18T17:02:10.503Z,99637.84
2023-01-18T17:04:37.265Z,99609.34
2023-01-18T17:07:06.629Z,99613.69
2023-01-18T17:09:47.311Z,99628.44
2023-01-18T17:12:14.569Z,99600.81
2023-01-18T17:14:40.954Z,99638.34
2023-01-18T17:17:09.559Z,99646.84
2023-01-18T17:19:37.668Z,99643.03
2023-01-18T17:22:04.293Z,99633.34
2023-01-18T17:24:30.744Z,99628.66
2023-01-18T17:26:57.465Z,99645.75
2023-01-18T17:29:24.125Z,99627.16
2023-01-18T17:31:52.842Z,99664.25
2023-01-18T17:34:28.076Z,99665.84
2023-01-18T17:36:57.645Z,99655.25
2023-01-18T17:39:31.839Z,99655.09
2023-01-18T17:42:12.268Z,99645.03
2023-01-18T17:44:40.820Z,99627.31
2023-01-18T17:47:07.642Z,99612.88
2023-01-18T17:49:34.128Z,99648.97
2023-01-18T17:52:00.499Z,99625.66
2023-01-18T17:54:27.264Z,99667.81
2023-01-18T17:56:53.835Z,99652.84
2023-01-18T17:59:20.514Z,99664.69
2023-01-18T18:01:47.032Z,99663.66
2023-01-18T18:04:13.859Z,99662.28
2023-01-18T18:06:49.351Z,99648.44
2023-01-18T18:09:19.814Z,99626.63
2023-01-18T18:11:46.236Z,99642.63
2023-01-18T18:14:12.621Z,99642.25
2023-01-18T18:16:43.423Z,99641.78
2023-01-18T18:19:10.205Z,99636.47
2023-01-18T18:21:36.610Z,99669.94
2023-01-18T18:24:03.142Z,99662.06
2023-01-18T18:26:29.513Z,99647.31
2023-01-18T18:28:55.971Z,99661.31
2023-01-18T18:31:22.480Z,99621.84
2023-01-18T18:33:49.368Z,99656.97
2023-01-18T18:36:15.782Z,99681.97
2023-01-18T18:38:42.312Z,99668.66
2023-01-18T18:41:08.928Z,99634.56
2023-01-18T18:43:35.428Z,99637.59
2023-01-18T18:46:02.063Z,99672.28
2023-01-18T18:48:28.605Z,99692.34
2023-01-18T18:50:55.329Z,99678.25
2023-01-18T18:53:29.697Z,99656.97
2023-01-18T18:56:06.750Z,99683.44
2023-01-18T18:58:42.491Z,99667.63
2023-01-18T19:01:20.015Z,99692.03
2023-01-18T19:03:47.384Z,99644.63
2023-01-18T19:06:14.056Z,99692.03
2023-01-18T19:08:40.445Z,99702.50
2023-01-18T19:11:06.948Z,99702.50
2023-01-18T19:13:33.432Z,99683.19
2023-01-18T19:15:59.981Z,99684.78
2023-01-18T19:18:26.731Z,99691.59
2023-01-18T19:20:53.410Z,99689.56
2023-01-18T19:23:20.679Z,99700.22
2023-01-18T19:25:48.496Z,99676.84
2023-01-18T19:28:16.089Z,99727.44
2023-01-18T19:30:43.525Z,99694.03
2023-01-18T19:33:11.495Z,99723.44
2023-01-18T19:35:40.933Z,99737.28
2023-01-18T19:38:07.955Z,99738.75
2023-01-18T19:40:34.650Z,99729.78
2023-01-18T19:43:01.511Z,99683.03
2023-01-18T19:45:29.693Z,99730.84
2023-01-18T19:47:59.545Z,99732.84
2023-01-18T19:50:27.957Z,99728.03
2023-01-18T19:52:54.681Z,99710.19
2023-01-18T19:55:21.680Z,99725.31
2023-01-18T19:57:49.093Z,99742.38
2023-01-18T20:00:16.608Z,99756.38
2023-01-18T20:02:43.823Z,99745.06
2023-01-18T20:05:10.488Z,99760.16
2023-01-18T20:07:40.379Z,99749.13
2023-01-18T20:10:07.601Z,99755.91
2023-01-18T20:12:34.266Z,99756.50
2023-01-18T20:15:00.767Z,99749.50
2023-01-18T20:17:27.371Z,99764.00
2023-01-18T20:19:54.311Z,99760.94
2023-01-18T20:22:21.560Z,99753.97
2023-01-18T20:24:48.184Z,99752.84
2023-01-18T20:27:16.857Z,99759.31
2023-01-18T20:29:43.971Z,99763.63
2023-01-18T20:32:18.535Z,99762.38
2023-01-18T20:34:46.792Z,99762.50
2023-01-18T20:37:14.241Z,99772.50
2023-01-18T20:39:40.675Z,99773.22
2023-01-18T20:42:07.078Z,99775.03
2023-01-18T20:44:33.543Z,99766.00
2023-01-18T20:47:00.001Z,99779.91
2023-01-18T20:49:37.413Z,99788.19
2023-01-18T20:52:05.833Z,99787.41
2023-01-18T20:54:34.637Z,99779.97
2023-01-18T20:57:01.536Z,99791.91
2023-01-18T20:59:27.943Z,99773.56
2023-01-18T21:01:54.502Z,99786.22
2023-01-18T21:04:21.134Z,99783.47
2023-01-18T21:06:49.739Z,99778.63
2023-01-18T21:09:16.695Z,99770.78
2023-01-18T21:11:43.590Z,99801.94
2023-01-18T21:14:10.014Z,99779.97
2023-01-18T21:16:36.681Z,99793.97
2023-01-18T21:19:03.255Z,99763.66
2023-01-18T21:21:31.713Z,99801.81
2023-01-18T21:23:58.367Z,99775.97
2023-01-18T21:26:24.816Z,99785.38
2023-01-18T21:28:51.259Z,99792.28
2023-01-18T21:31:17.892Z,99812.59
2023-01-18T21:33:44.360Z,99804.72
2023-01-18T21:36:15.900Z,99814.69
2023-01-18T21:38:42.333Z,99802.75
2023-01-18T21:41:28.362Z,99819.16
2023-01-18T21:44:13.238Z,99813.22
2023-01-18T21:46:51.030Z,99808.53
2023-01-18T21:49:57.565Z,99827.16
2023-01-18T21:52:41.613Z,99808.53
2023-01-18T21:55:08.366Z,99820.59
2023-01-18T21:57:36.257Z,99806.84
2023-01-18T22:00:04.913Z,99831.56
2023-01-18T22:02:32.716Z,99804.22
2023-01-18T22:05:00.082Z,99844.16
2023-01-18T22:07:28.133Z,99810.78
2023-01-18T22:10:04.748Z,99817.16
2023-01-18T22:12:33.308Z,99808.53
2023-01-18T22:15:01.875Z,99827.25
2023-01-18T22:17:28.418Z,99853.69
2023-01-18T22:19:54.780Z,99844.75
2023-01-18T22:22:21.169Z,99839.53
2023-01-18T22:24:47.541Z,99815.34
2023-01-18T22:27:13.935Z,99779.50
2023-01-18T22:29:40.311Z,99854.53
2023-01-18T22:32:06.706Z,99847.03
2023-01-18T22:34:33.069Z,99830.25
2023-01-18T22:36:59.462Z,99841.56
2023-01-18T22:39:25.810Z,99837.63
2023-01-18T22:41:52.197Z,99864.91
2023-01-18T22:44:18.561Z,99876.91
2023-01-18T22:46:45.007Z,99873.63
2023-01-18T22:49:11.393Z,99867.78
2023-01-18T22:51:37.818Z,99874.31
2023-01-18T22:54:04.428Z,99871.13
2023-01-18T22:56:30.945Z,99866.09
2023-01-18T22:58:57.490Z,99864.16
2023-01-18T23:01:27.689Z,99850.56
2023-01-18T23:03:59.775Z,99857.25
2023-01-18T23:06:28.094Z,99840.25
2023-01-18T23:08:55.860Z,99878.63
2023-01-18T23:11:25.491Z,99867.09
2023-01-18T23:14:15.735Z,99879.47
2023-01-18T23:17:01.617Z,99878.38
2023-01-18T23:19:29.714Z,99878.94
2023-01-18T23:21:57.396Z,99875.88
2023-01-18T23:24:23.982Z,99886.94
2023-01-18T23:26:51.099Z,99882.47
2023-01-18T23:29:18.291Z,99886.25
2023-01-18T23:31:44.663Z,99880.13
2023-01-18T23:34:11.136Z,99881.97
2023-01-18T23:36:37.586Z,99873.59
2023-01-18T23:39:22.546Z,99889.31
2023-01-18T23:42:07.406Z,99885.97
2023-01-18T23:44:52.676Z,99873.59
2023-01-18T23:47:38.159Z,99857.22
2023-01-18T23:50:23.450Z,99897.31
2023-01-18T23:53:08.300Z,99876.75
2023-01-18T23:55:34.765Z,99887.69
2023-01-18T23:58:01.622Z,99893.53
